Time;durP1;ratioP1;P1;durP2;ratioP2;P2;SDS_P1;SDS_P2;PMS_P1;PMS_P2;Temp;Humidity;BMP_temperature;BMP_pressure;BME280_temperature;BME280_humidity;BME280_pressure;Samples;Min_cycle;Max_cycle;Signal;HPM_P1;HPM_P2
2024/01/11 00:00:40;;;;;;;6.22;4.05;;;18.40;25.80;;;;;;5000816;28;20088;-59
2024/01/11 00:03:06;;;;;;;5.50;4.10;;;18.40;25.90;;;;;;5004241;28;20874;-59
2024/01/11 00:05:32;;;;;;;6.15;4.50;;;18.40;25.90;;;;;;5001075;28;20025;-57
2024/01/11 00:07:57;;;;;;;5.55;4.07;;;18.40;25.90;;;;;;5000752;28;20023;-60
2024/01/11 00:10:23;;;;;;;6.13;4.32;;;18.40;25.90;;;;;;5000605;28;20031;-60
2024/01/11 00:12:49;;;;;;;5.93;4.30;;;18.30;25.80;;;;;;5000634;28;20402;-60
2024/01/11 00:15:15;;;;;;;5.47;4.20;;;18.40;25.90;;;;;;4998748;28;20037;-60
2024/01/11 00:17:41;;;;;;;5.53;3.70;;;18.40;25.90;;;;;;5000929;28;20043;-59
2024/01/11 00:20:07;;;;;;;5.53;4.25;;;18.30;25.80;;;;;;5001591;28;20349;-59
2024/01/11 00:22:33;;;;;;;5.78;3.80;;;18.40;25.90;;;;;;5005457;28;20609;-58
2024/01/11 00:24:59;;;;;;;6.95;4.18;;;18.30;25.80;;;;;;5003325;28;20109;-60
2024/01/11 00:27:24;;;;;;;5.43;3.90;;;18.30;25.80;;;;;;4996164;28;20072;-60
2024/01/11 00:29:50;;;;;;;8.10;4.15;;;18.30;25.80;;;;;;4996300;28;20442;-58
2024/01/11 00:32:16;;;;;;;5.07;4.18;;;18.30;25.80;;;;;;5001788;28;20035;-59
2024/01/11 00:34:42;;;;;;;7.05;4.75;;;18.30;25.90;;;;;;5003024;28;20042;-58
2024/01/11 00:37:07;;;;;;;6.05;4.07;;;18.30;25.80;;;;;;5005027;28;20022;-60
2024/01/11 00:39:33;;;;;;;6.63;4.35;;;18.30;25.80;;;;;;5006281;28;20511;-59
2024/01/11 00:41:59;;;;;;;5.97;4.07;;;18.30;25.80;;;;;;5008341;28;20108;-59
2024/01/11 00:44:25;;;;;;;6.78;4.32;;;18.30;25.80;;;;;;5006833;28;21647;-60
2024/01/11 00:46:51;;;;;;;7.65;4.38;;;18.30;25.90;;;;;;5002633;28;20022;-59
2024/01/11 00:49:16;;;;;;;6.50;3.53;;;18.30;25.90;;;;;;4999474;28;20417;-60
2024/01/11 00:51:42;;;;;;;6.80;4.35;;;18.30;25.90;;;;;;5004470;28;20036;-60
2024/01/11 00:54:08;;;;;;;5.38;4.15;;;18.30;25.90;;;;;;4999126;28;20018;-58
2024/01/11 00:56:34;;;;;;;6.13;4.00;;;18.30;25.90;;;;;;5007571;28;20023;-59
2024/01/11 00:59:00;;;;;;;5.80;3.65;;;18.30;25.90;;;;;;5005456;28;20148;-58
2024/01/11 01:01:26;;;;;;;5.35;3.80;;;18.30;25.90;;;;;;5010966;28;20036;-58
2024/01/11 01:03:52;;;;;;;6.43;4.07;;;18.30;25.90;;;;;;5004343;28;20105;-60
2024/01/11 01:06:18;;;;;;;6.22;4.25;;;18.20;25.80;;;;;;5010378;28;20033;-59
2024/01/11 01:08:43;;;;;;;6.28;4.10;;;18.20;25.80;;;;;;5004898;28;20026;-60
2024/01/11 01:11:09;;;;;;;5.50;3.50;;;18.20;25.80;;;;;;5002519;28;20034;-60
2024/01/11 01:13:35;;;;;;;5.50;3.85;;;18.20;25.80;;;;;;5001226;28;20161;-59
2024/01/11 01:16:01;;;;;;;5.00;3.58;;;18.20;25.80;;;;;;5008005;28;20435;-58
2024/01/11 01:18:27;;;;;;;5.30;3.78;;;18.20;25.80;;;;;;5001895;28;20033;-58
2024/01/11 01:20:53;;;;;;;5.00;3.60;;;18.20;25.80;;;;;;4998955;28;20025;-60
2024/01/11 01:23:19;;;;;;;7.57;3.90;;;18.20;25.80;;;;;;5004244;28;20029;-60
2024/01/11 01:25:45;;;;;;;6.45;4.28;;;18.20;25.80;;;;;;5007172;28;20050;-59
2024/01/11 01:28:10;;;;;;;5.10;3.83;;;18.10;25.80;;;;;;5003220;28;20031;-59
2024/01/11 01:30:36;;;;;;;6.07;3.90;;;18.20;25.80;;;;;;5009545;28;20460;-59
2024/01/11 01:33:02;;;;;;;5.75;4.13;;;18.20;25.80;;;;;;4993549;28;20033;-60
2024/01/11 01:35:28;;;;;;;5.45;3.85;;;18.20;25.80;;;;;;5008784;28;20394;-59
2024/01/11 01:37:54;;;;;;;6.68;4.05;;;18.20;25.80;;;;;;5009707;28;20031;-60
2024/01/11 01:40:19;;;;;;;5.60;3.83;;;18.20;25.80;;;;;;5007005;28;20092;-60
2024/01/11 01:42:46;;;;;;;5.40;4.10;;;18.10;25.80;;;;;;5009763;28;20440;-59
2024/01/11 01:45:12;;;;;;;5.55;3.70;;;18.10;25.80;;;;;;5007755;28;20022;-59
2024/01/11 01:47:40;;;;;;;5.35;3.92;;;18.10;25.80;;;;;;5008588;28;20030;-58
2024/01/11 01:50:09;;;;;;;6.53;3.90;;;18.10;25.80;;;;;;5000030;28;20064;-59
2024/01/11 01:52:37;;;;;;;5.95;3.70;;;18.10;25.80;;;;;;5003629;28;20033;-58
2024/01/11 01:55:04;;;;;;;6.38;4.20;;;18.10;25.80;;;;;;5001536;28;20041;-61
2024/01/11 01:57:33;;;;;;;6.57;4.53;;;18.10;25.80;;;;;;5003322;28;20030;-59
2024/01/11 01:59:59;;;;;;;5.88;3.90;;;18.10;25.80;;;;;;5004957;28;20042;-59
2024/01/11 02:02:26;;;;;;;5.20;3.83;;;18.10;25.80;;;;;;4999873;28;20076;-59
2024/01/11 02:04:52;;;;;;;5.57;3.92;;;18.10;25.80;;;;;;4998375;28;20038;-59
2024/01/11 02:07:19;;;;;;;5.60;4.00;;;18.10;25.80;;;;;;5003447;28;20018;-59
2024/01/11 02:09:45;;;;;;;5.55;4.15;;;18.10;25.80;;;;;;5002353;28;20034;-59
2024/01/11 02:12:12;;;;;;;5.47;4.03;;;18.10;25.80;;;;;;5000988;28;20034;-61
2024/01/11 02:14:38;;;;;;;5.43;3.58;;;18.10;25.80;;;;;;4998972;28;20055;-59
2024/01/11 02:17:05;;;;;;;5.70;3.90;;;18.00;25.80;;;;;;4998857;28;20034;-59
2024/01/11 02:19:30;;;;;;;4.70;3.70;;;18.00;25.80;;;;;;4998836;28;20034;-59
2024/01/11 02:22:02;;;;;;;6.43;4.30;;;18.00;25.80;;;;;;5005439;28;20369;-60
2024/01/11 02:24:28;;;;;;;6.00;3.95;;;18.00;25.80;;;;;;5005244;28;20038;-59
2024/01/11 02:27:02;;;;;;;4.93;3.72;;;18.00;25.80;;;;;;5006778;28;20389;-60
2024/01/11 02:29:29;;;;;;;5.18;3.35;;;18.00;25.80;;;;;;5006052;28;20109;-59
2024/01/11 02:31:55;;;;;;;5.13;3.70;;;18.00;25.80;;;;;;5002594;28;20446;-59
2024/01/11 02:34:23;;;;;;;5.13;3.80;;;18.00;25.80;;;;;;5003978;28;20026;-59
2024/01/11 02:36:50;;;;;;;5.68;3.67;;;18.00;25.80;;;;;;4998660;28;20472;-60
2024/01/11 02:39:18;;;;;;;6.85;3.80;;;18.00;25.90;;;;;;5007337;28;20068;-59
2024/01/11 02:41:44;;;;;;;4.43;3.38;;;18.00;26.40;;;;;;5001140;28;20031;-60
2024/01/11 02:44:10;;;;;;;4.90;3.90;;;18.00;25.90;;;;;;5001842;28;20118;-59
2024/01/11 02:46:36;;;;;;;5.13;3.60;;;17.90;25.90;;;;;;5009397;28;20464;-60
2024/01/11 02:49:02;;;;;;;4.60;3.55;;;17.90;25.90;;;;;;5002093;28;20055;-59
2024/01/11 02:51:28;;;;;;;5.55;4.05;;;18.00;25.90;;;;;;5005671;28;20029;-60
2024/01/11 02:53:54;;;;;;;5.05;3.50;;;18.00;25.90;;;;;;5002311;28;20034;-61
2024/01/11 02:56:19;;;;;;;5.55;3.95;;;17.90;25.90;;;;;;5004536;28;20026;-60
2024/01/11 02:58:45;;;;;;;6.38;3.97;;;17.90;25.90;;;;;;5006920;28;20022;-59
2024/01/11 03:01:11;;;;;;;10.40;4.18;;;17.90;25.90;;;;;;5004636;28;20022;-60
2024/01/11 03:03:37;;;;;;;5.45;3.97;;;17.90;25.90;;;;;;5002273;28;20484;-59
2024/01/11 03:06:03;;;;;;;5.13;3.58;;;17.90;25.90;;;;;;5002364;28;20038;-60
2024/01/11 03:08:29;;;;;;;5.07;3.47;;;17.90;25.90;;;;;;5004843;28;20096;-59
2024/01/11 03:10:55;;;;;;;4.75;3.88;;;17.90;26.00;;;;;;5008363;28;20018;-59
2024/01/11 03:13:21;;;;;;;5.90;4.22;;;17.90;26.00;;;;;;5004487;28;20085;-59
2024/01/11 03:15:46;;;;;;;5.85;3.95;;;17.90;26.00;;;;;;5000794;28;20029;-58
2024/01/11 03:18:12;;;;;;;5.43;3.90;;;17.90;26.50;;;;;;5000262;28;20038;-59
2024/01/11 03:20:38;;;;;;;6.15;3.65;;;17.90;26.00;;;;;;5005759;28;20088;-59
2024/01/11 03:23:04;;;;;;;4.72;3.60;;;17.90;26.00;;;;;;5005419;28;20030;-58
2024/01/11 03:25:30;;;;;;;4.95;3.83;;;17.90;26.00;;;;;;4997371;28;20022;-60
2024/01/11 03:27:55;;;;;;;4.65;3.55;;;17.90;26.00;;;;;;5001861;28;20465;-59
2024/01/11 03:30:21;;;;;;;6.15;4.18;;;17.90;26.20;;;;;;5003076;28;20105;-60
2024/01/11 03:32:47;;;;;;;4.85;3.67;;;17.80;26.00;;;;;;5001834;28;20030;-58
2024/01/11 03:35:13;;;;;;;4.97;3.70;;;17.80;26.00;;;;;;5005259;28;20045;-61
2024/01/11 03:37:39;;;;;;;5.20;3.60;;;17.80;26.00;;;;;;4998051;28;20029;-59
2024/01/11 03:40:06;;;;;;;5.53;3.63;;;17.80;26.00;;;;;;5002184;28;20038;-59
2024/01/11 03:42:31;;;;;;;4.43;3.63;;;17.90;26.00;;;;;;4996724;28;20081;-60
2024/01/11 03:44:57;;;;;;;5.32;3.85;;;17.80;26.00;;;;;;5004283;28;20038;-60
2024/01/11 03:47:23;;;;;;;5.47;3.65;;;17.90;26.00;;;;;;5004780;28;20039;-59
2024/01/11 03:49:49;;;;;;;7.05;4.05;;;17.80;26.00;;;;;;4998319;28;20067;-60
2024/01/11 03:52:14;;;;;;;5.65;4.20;;;17.80;26.00;;;;;;5006078;28;20021;-59
2024/01/11 03:54:40;;;;;;;6.93;3.80;;;17.80;26.00;;;;;;5003317;28;20437;-59
2024/01/11 03:57:06;;;;;;;5.05;3.58;;;17.80;26.00;;;;;;5006365;28;20022;-61
2024/01/11 03:59:32;;;;;;;5.10;3.63;;;17.80;26.00;;;;;;5003709;28;20122;-60
2024/01/11 04:01:59;;;;;;;5.20;3.85;;;17.80;26.00;;;;;;5004720;28;20468;-60
2024/01/11 04:04:24;;;;;;;5.95;4.40;;;17.80;26.00;;;;;;4999581;28;20018;-59
2024/01/11 04:06:52;;;;;;;5.22;3.78;;;17.80;26.00;;;;;;4997044;28;20093;-59
2024/01/11 04:09:17;;;;;;;4.82;3.55;;;17.80;26.00;;;;;;4999863;28;20026;-60
2024/01/11 04:11:43;;;;;;;5.32;3.97;;;17.80;26.00;;;;;;5004902;28;20029;-60
2024/01/11 04:14:09;;;;;;;5.57;4.28;;;17.80;26.00;;;;;;5006639;28;20041;-59
2024/01/11 04:16:40;;;;;;;5.70;3.58;;;17.80;26.00;;;;;;5004553;28;20084;-59
2024/01/11 04:19:06;;;;;;;5.70;3.85;;;17.80;26.00;;;;;;5007967;28;20046;-60
2024/01/11 04:21:32;;;;;;;5.10;3.80;;;17.80;26.00;;;;;;4996843;28;20113;-59
2024/01/11 04:23:58;;;;;;;5.57;3.90;;;17.80;26.00;;;;;;4984406;28;20026;-60
2024/01/11 04:26:24;;;;;;;5.88;4.00;;;17.80;25.90;;;;;;5007315;28;20026;-59
2024/01/11 04:28:51;;;;;;;4.68;3.70;;;17.80;25.90;;;;;;4997667;28;20030;-59
2024/01/11 04:31:16;;;;;;;4.47;3.45;;;17.80;25.90;;;;;;5002773;28;20021;-61
2024/01/11 04:33:43;;;;;;;5.55;3.72;;;17.80;25.90;;;;;;4999635;28;20033;-60
2024/01/11 04:36:10;;;;;;;5.18;3.85;;;17.80;25.90;;;;;;5001017;28;20456;-60
2024/01/11 04:38:37;;;;;;;5.10;3.85;;;17.80;25.90;;;;;;5007230;28;20104;-59
2024/01/11 04:41:09;;;;;;;5.05;3.63;;;17.80;25.90;;;;;;5012107;28;20046;-59
2024/01/11 04:43:41;;;;;;;4.90;3.88;;;17.80;25.90;;;;;;5001822;28;20148;-60
2024/01/11 04:46:18;;;;;;;5.22;3.88;;;17.80;25.80;;;;;;5007390;28;20049;-60
2024/01/11 04:48:44;;;;;;;5.63;4.00;;;17.80;25.80;;;;;;4999020;28;20034;-60
2024/01/11 04:51:12;;;;;;;6.43;4.13;;;17.80;25.80;;;;;;5001440;28;20038;-58
2024/01/11 04:53:41;;;;;;;6.10;4.00;;;17.80;25.80;;;;;;4999759;28;20450;-59
2024/01/11 04:56:09;;;;;;;5.93;3.83;;;17.80;25.80;;;;;;5000891;28;20030;-58
2024/01/11 04:58:36;;;;;;;5.53;4.30;;;17.80;26.30;;;;;;5006233;28;20029;-60
2024/01/11 05:01:02;;;;;;;6.22;4.43;;;17.80;25.80;;;;;;5006753;28;20472;-60
2024/01/11 05:03:28;;;;;;;6.28;4.20;;;17.80;25.80;;;;;;5010488;28;20019;-60
2024/01/11 05:05:54;;;;;;;4.95;4.00;;;17.80;25.80;;;;;;5012546;28;20041;-59
2024/01/11 05:08:20;;;;;;;5.43;4.00;;;17.80;25.80;;;;;;5003181;28;20461;-60
2024/01/11 05:10:46;;;;;;;5.05;3.67;;;17.80;25.80;;;;;;5002327;28;20346;-60
2024/01/11 05:13:12;;;;;;;5.63;4.40;;;17.80;25.80;;;;;;4998888;28;20400;-60
2024/01/11 05:15:37;;;;;;;5.05;4.13;;;17.80;25.70;;;;;;5008947;28;20118;-59
2024/01/11 05:18:03;;;;;;;5.03;3.88;;;17.80;25.70;;;;;;5002656;28;20092;-58
2024/01/11 05:20:29;;;;;;;5.50;3.63;;;17.80;25.80;;;;;;5000384;28;20062;-60
2024/01/11 05:22:55;;;;;;;5.30;4.15;;;17.80;25.80;;;;;;5005285;28;20061;-59
2024/01/11 05:25:21;;;;;;;4.93;3.58;;;17.80;25.70;;;;;;5001637;28;20030;-59
2024/01/11 05:27:47;;;;;;;5.47;4.25;;;17.80;25.70;;;;;;4998419;28;20338;-60
2024/01/11 05:30:13;;;;;;;5.38;3.92;;;17.80;25.70;;;;;;5006858;28;20022;-58
2024/01/11 05:32:39;;;;;;;5.13;3.88;;;17.80;25.70;;;;;;5004294;28;20476;-59
2024/01/11 05:35:05;;;;;;;5.03;3.90;;;17.80;25.70;;;;;;5006565;28;20025;-58
2024/01/11 05:37:31;;;;;;;5.22;4.07;;;17.80;25.70;;;;;;5006535;28;20411;-61
2024/01/11 05:39:57;;;;;;;5.65;3.95;;;17.80;25.70;;;;;;5002074;28;20034;-59
2024/01/11 05:42:23;;;;;;;5.43;4.07;;;17.80;25.70;;;;;;5003695;28;20025;-57
2024/01/11 05:44:50;;;;;;;5.22;3.92;;;17.80;25.70;;;;;;5004040;28;20022;-59
2024/01/11 05:47:16;;;;;;;4.25;3.40;;;17.80;25.70;;;;;;5011045;28;20116;-59
2024/01/11 05:49:41;;;;;;;5.53;3.95;;;17.80;25.70;;;;;;5005796;28;20710;-57
2024/01/11 05:52:08;;;;;;;5.47;4.15;;;17.80;25.70;;;;;;5000404;28;20050;-59
2024/01/11 05:54:33;;;;;;;4.63;3.70;;;17.80;25.70;;;;;;5002128;28;20031;-58
2024/01/11 05:56:59;;;;;;;4.85;3.72;;;17.80;25.70;;;;;;4999126;28;20097;-60
2024/01/11 05:59:26;;;;;;;5.95;4.20;;;17.80;25.70;;;;;;5006228;28;20092;-59
2024/01/11 06:01:51;;;;;;;4.88;3.72;;;17.80;25.70;;;;;;5008047;28;20105;-60
2024/01/11 06:04:17;;;;;;;4.97;3.67;;;17.80;25.60;;;;;;5006694;28;20109;-61
2024/01/11 06:06:43;;;;;;;5.15;3.67;;;17.80;25.60;;;;;;5006320;28;20033;-60
2024/01/11 06:09:10;;;;;;;5.38;4.03;;;17.80;25.70;;;;;;5006170;28;20075;-59
2024/01/11 06:11:36;;;;;;;5.03;4.00;;;17.80;25.70;;;;;;4997983;28;20037;-60
2024/01/11 06:14:02;;;;;;;5.35;3.67;;;17.80;25.70;;;;;;5004474;28;20042;-59
2024/01/11 06:16:28;;;;;;;4.72;3.50;;;17.80;25.70;;;;;;5006083;28;20470;-60
2024/01/11 06:18:54;;;;;;;4.15;3.28;;;17.80;25.80;;;;;;5005336;28;20117;-59
2024/01/11 06:21:20;;;;;;;4.95;3.78;;;17.80;25.90;;;;;;5003745;28;20049;-60
2024/01/11 06:23:46;;;;;;;4.80;3.65;;;17.80;25.90;;;;;;5000448;28;20430;-60
2024/01/11 06:26:12;;;;;;;4.75;3.70;;;17.80;25.90;;;;;;4999540;28;20030;-60
2024/01/11 06:28:38;;;;;;;5.25;3.38;;;17.80;25.80;;;;;;5002300;28;20044;-61
2024/01/11 06:31:03;;;;;;;4.85;3.45;;;17.80;25.90;;;;;;5003807;28;20030;-60
2024/01/11 06:33:29;;;;;;;4.70;3.45;;;17.80;25.90;;;;;;5001425;28;20026;-60
2024/01/11 06:35:56;;;;;;;5.57;3.28;;;17.80;25.90;;;;;;5004281;28;20401;-58
2024/01/11 06:38:21;;;;;;;5.15;3.70;;;17.80;25.90;;;;;;5001223;28;20058;-57
2024/01/11 06:40:48;;;;;;;5.28;3.85;;;17.80;26.00;;;;;;5002037;28;20081;-57
2024/01/11 06:43:15;;;;;;;4.85;3.72;;;17.80;26.00;;;;;;5003828;28;20046;-59
2024/01/11 06:45:43;;;;;;;5.30;3.67;;;17.80;26.00;;;;;;5006318;28;20037;-58
2024/01/11 06:48:08;;;;;;;5.25;4.05;;;17.80;25.90;;;;;;5002023;28;20430;-60
2024/01/11 06:50:34;;;;;;;6.15;4.60;;;17.90;25.90;;;;;;5003408;28;20084;-57
2024/01/11 06:53:01;;;;;;;5.30;3.90;;;17.80;25.90;;;;;;5003883;28;20148;-56
2024/01/11 06:55:27;;;;;;;5.75;3.92;;;17.80;25.90;;;;;;5008634;28;20331;-58
2024/01/11 06:57:53;;;;;;;5.03;3.75;;;17.80;25.80;;;;;;5006147;28;20029;-58
2024/01/11 07:00:19;;;;;;;4.60;3.72;;;17.80;25.80;;;;;;5003302;28;20038;-60
2024/01/11 07:02:45;;;;;;;4.75;3.70;;;17.90;25.80;;;;;;5002687;28;20097;-58
2024/01/11 07:05:12;;;;;;;5.15;3.75;;;17.90;25.80;;;;;;5004910;28;20056;-58
2024/01/11 07:07:38;;;;;;;5.78;3.80;;;17.90;25.80;;;;;;5001472;28;20457;-60
2024/01/11 07:10:05;;;;;;;5.90;4.13;;;17.90;25.80;;;;;;5002994;28;20033;-60
2024/01/11 07:12:32;;;;;;;5.50;3.92;;;17.90;25.80;;;;;;5001512;28;20465;-58
2024/01/11 07:14:58;;;;;;;5.90;4.13;;;17.90;25.80;;;;;;5001409;28;20084;-60
2024/01/11 07:17:24;;;;;;;5.18;3.78;;;17.90;25.80;;;;;;5000619;28;20065;-57
2024/01/11 07:19:49;;;;;;;5.60;3.83;;;17.90;25.80;;;;;;5004187;28;20038;-59
2024/01/11 07:22:15;;;;;;;4.88;3.78;;;17.80;25.80;;;;;;5003302;28;20022;-58
2024/01/11 07:24:41;;;;;;;5.68;3.85;;;17.80;25.90;;;;;;4997404;28;20078;-60
2024/01/11 07:27:08;;;;;;;4.25;3.33;;;17.80;25.90;;;;;;5004662;28;20029;-58
2024/01/11 07:29:35;;;;;;;5.25;3.92;;;17.80;26.00;;;;;;5005261;28;20029;-58
2024/01/11 07:32:01;;;;;;;4.78;3.63;;;17.80;26.00;;;;;;5002087;28;20472;-58
2024/01/11 07:34:27;;;;;;;6.95;3.67;;;17.80;26.10;;;;;;5001662;28;20018;-59
2024/01/11 07:36:53;;;;;;;4.80;3.78;;;17.80;26.10;;;;;;5005007;28;20022;-58
2024/01/11 07:39:19;;;;;;;5.20;3.88;;;17.80;26.10;;;;;;5009149;28;20029;-56
2024/01/11 07:41:45;;;;;;;5.15;3.67;;;17.80;26.10;;;;;;5002800;28;20026;-56
2024/01/11 07:44:12;;;;;;;5.03;3.85;;;17.80;26.10;;;;;;5003234;28;20034;-60
2024/01/11 07:46:38;;;;;;;5.32;3.92;;;17.70;26.10;;;;;;5002741;28;20041;-57
2024/01/11 07:49:04;;;;;;;4.85;3.97;;;17.70;26.00;;;;;;5004172;28;20030;-57
2024/01/11 07:51:30;;;;;;;5.45;4.10;;;17.70;26.00;;;;;;5000673;28;20045;-58
2024/01/11 07:53:56;;;;;;;4.95;3.88;;;17.80;26.00;;;;;;5003456;28;20109;-60
2024/01/11 07:56:22;;;;;;;5.38;4.20;;;17.80;26.00;;;;;;5002990;28;20138;-58
2024/01/11 07:58:48;;;;;;;5.47;4.13;;;17.80;26.00;;;;;;5004394;28;20023;-56
2024/01/11 08:01:15;;;;;;;5.13;4.30;;;17.70;25.90;;;;;;5001022;28;20088;-57
2024/01/11 08:03:44;;;;;;;5.03;3.85;;;17.70;25.90;;;;;;5001645;28;20077;-58
2024/01/11 08:06:10;;;;;;;5.32;3.90;;;17.70;25.90;;;;;;4999284;28;20449;-59
2024/01/11 08:08:38;;;;;;;5.97;4.28;;;17.70;25.90;;;;;;5010437;28;20030;-57
2024/01/11 08:11:08;;;;;;;5.10;3.85;;;17.70;25.90;;;;;;5007917;28;20049;-59
2024/01/11 08:13:34;;;;;;;6.53;4.47;;;17.70;25.90;;;;;;5009268;28;20035;-60
2024/01/11 08:16:03;;;;;;;4.90;3.95;;;17.70;25.90;;;;;;5011269;28;20108;-58
2024/01/11 08:18:29;;;;;;;5.05;4.03;;;17.70;25.80;;;;;;5009484;28;20053;-58
2024/01/11 08:20:55;;;;;;;5.72;4.40;;;17.70;25.80;;;;;;5007820;28;20049;-57
2024/01/11 08:23:21;;;;;;;5.63;4.32;;;17.70;25.80;;;;;;5007192;28;20029;-59
2024/01/11 08:25:47;;;;;;;4.90;3.95;;;17.70;25.80;;;;;;5009461;28;20090;-58
2024/01/11 08:28:13;;;;;;;5.50;3.97;;;17.70;25.90;;;;;;5006160;28;20450;-55
2024/01/11 08:30:39;;;;;;;5.25;3.67;;;17.70;25.90;;;;;;5008087;28;20038;-56
2024/01/11 08:33:04;;;;;;;5.40;4.22;;;17.70;26.00;;;;;;5001788;28;20470;-60
2024/01/11 08:35:32;;;;;;;5.88;4.45;;;17.70;26.00;;;;;;5000251;28;20113;-57
2024/01/11 08:37:58;;;;;;;5.32;4.10;;;17.70;26.00;;;;;;5000952;28;20030;-56
2024/01/11 08:40:24;;;;;;;5.07;4.07;;;17.70;25.90;;;;;;5001209;28;20053;-58
2024/01/11 08:42:51;;;;;;;5.38;4.10;;;17.70;26.40;;;;;;5002975;28;20077;-59
2024/01/11 08:45:20;;;;;;;5.55;4.10;;;17.70;25.90;;;;;;5011871;28;20115;-59
2024/01/11 08:47:46;;;;;;;5.55;4.43;;;17.80;25.80;;;;;;5011152;28;20029;-58
2024/01/11 08:50:13;;;;;;;5.60;4.10;;;17.90;25.80;;;;;;5008715;28;20030;-58
2024/01/11 08:52:39;;;;;;;6.35;4.15;;;17.90;25.80;;;;;;5009986;28;20041;-59
2024/01/11 08:55:06;;;;;;;5.45;4.32;;;18.00;25.80;;;;;;5002837;28;20489;-59
2024/01/11 08:57:31;;;;;;;6.10;4.38;;;18.00;25.70;;;;;;5005244;28;20032;-58
2024/01/11 08:59:57;;;;;;;6.90;4.50;;;18.10;25.70;;;;;;5008289;28;20446;-57
2024/01/11 09:02:23;;;;;;;5.32;4.50;;;18.10;25.70;;;;;;5000926;28;20080;-58
2024/01/11 09:04:49;;;;;;;5.63;4.68;;;18.20;25.70;;;;;;5014462;28;20409;-60
2024/01/11 09:07:18;;;;;;;4.72;4.22;;;18.20;25.60;;;;;;5004254;28;20552;-59
2024/01/11 09:09:44;;;;;;;7.75;5.10;;;18.20;25.50;;;;;;5014615;28;20105;-60
2024/01/11 09:12:10;;;;;;;5.70;4.57;;;18.30;25.50;;;;;;5017663;28;20109;-58
2024/01/11 09:14:35;;;;;;;5.85;4.65;;;18.40;25.60;;;;;;5012483;28;20045;-59
2024/01/11 09:17:01;;;;;;;6.20;4.78;;;18.40;25.50;;;;;;5002109;28;20460;-56
2024/01/11 09:19:27;;;;;;;6.28;4.85;;;18.40;25.40;;;;;;4991371;28;20034;-59
2024/01/11 09:21:53;;;;;;;6.97;4.80;;;18.50;25.40;;;;;;4990253;28;20061;-58
2024/01/11 09:24:19;;;;;;;6.80;4.95;;;18.50;25.40;;;;;;4992005;28;20073;-57
2024/01/11 09:26:45;;;;;;;7.15;5.22;;;18.60;25.40;;;;;;4995150;28;20027;-58
2024/01/11 09:29:10;;;;;;;6.50;4.63;;;18.60;25.40;;;;;;4994332;28;20110;-60
2024/01/11 09:31:36;;;;;;;6.50;4.78;;;18.60;25.30;;;;;;4992101;28;20038;-59
2024/01/11 09:34:02;;;;;;;7.03;4.88;;;18.60;25.30;;;;;;5008081;28;20534;-59
2024/01/11 09:36:28;;;;;;;7.15;4.70;;;18.70;25.30;;;;;;5011340;28;20018;-59
2024/01/11 09:38:53;;;;;;;7.53;5.38;;;18.70;25.20;;;;;;5000286;28;20030;-59
2024/01/11 09:41:19;;;;;;;6.25;4.47;;;18.80;25.20;;;;;;5005857;28;20100;-57
2024/01/11 09:43:48;;;;;;;5.53;4.55;;;18.80;25.20;;;;;;5005815;28;20029;-58
2024/01/11 09:46:15;;;;;;;6.07;4.75;;;18.80;25.20;;;;;;5007101;28;20034;-58
2024/01/11 09:48:44;;;;;;;7.22;5.25;;;18.80;25.20;;;;;;5009263;28;20038;-57
2024/01/11 09:51:13;;;;;;;6.65;4.60;;;18.80;25.20;;;;;;5002911;28;20033;-58
2024/01/11 09:53:40;;;;;;;6.07;5.00;;;18.90;25.20;;;;;;5005581;28;20045;-60
2024/01/11 09:56:10;;;;;;;5.07;4.53;;;18.90;25.10;;;;;;5000172;28;20044;-57
2024/01/11 09:58:39;;;;;;;5.82;4.63;;;18.90;25.10;;;;;;5013747;28;20164;-58
2024/01/11 10:01:13;;;;;;;6.18;4.90;;;18.90;25.10;;;;;;5010922;28;20104;-60
2024/01/11 10:03:41;;;;;;;6.28;5.07;;;18.90;25.10;;;;;;5012190;28;20114;-58
2024/01/11 10:06:09;;;;;;;5.80;4.47;;;18.90;25.00;;;;;;5011367;28;20035;-59
2024/01/11 10:08:35;;;;;;;5.85;4.32;;;18.90;25.10;;;;;;5005357;28;20101;-58
2024/01/11 10:11:02;;;;;;;5.00;3.92;;;18.90;25.10;;;;;;4995197;28;20341;-58
2024/01/11 10:13:35;;;;;;;5.15;4.00;;;18.90;25.10;;;;;;5008261;28;20354;-56
2024/01/11 10:16:09;;;;;;;5.53;4.43;;;18.90;25.10;;;;;;5014799;28;20022;-59
2024/01/11 10:18:35;;;;;;;5.18;4.15;;;19.00;25.10;;;;;;5006971;28;20504;-60
2024/01/11 10:21:02;;;;;;;6.05;4.60;;;19.00;25.10;;;;;;5014392;28;20457;-58
2024/01/11 10:23:31;;;;;;;6.38;4.70;;;19.00;25.00;;;;;;5008825;28;20085;-58
2024/01/11 10:25:57;;;;;;;4.97;4.13;;;19.00;25.00;;;;;;5015642;28;20088;-58
2024/01/11 10:28:25;;;;;;;4.97;4.10;;;19.00;25.00;;;;;;5007922;28;20347;-59
2024/01/11 10:30:54;;;;;;;6.15;4.72;;;19.00;25.00;;;;;;4997414;28;20034;-58
2024/01/11 10:33:21;;;;;;;4.85;4.07;;;19.00;25.00;;;;;;5000680;28;20109;-59
2024/01/11 10:35:50;;;;;;;5.95;4.60;;;19.10;25.00;;;;;;4996775;28;20048;-60
2024/01/11 10:38:17;;;;;;;5.22;4.03;;;19.10;25.00;;;;;;5003144;28;20050;-58
2024/01/11 10:40:44;;;;;;;4.70;4.20;;;19.10;25.00;;;;;;4999772;28;20074;-58
2024/01/11 10:43:11;;;;;;;4.63;3.92;;;19.10;25.00;;;;;;4999336;28;20035;-60
2024/01/11 10:45:41;;;;;;;5.43;4.20;;;19.00;25.00;;;;;;5002054;28;20088;-61
2024/01/11 10:48:13;;;;;;;4.30;3.33;;;19.10;25.10;;;;;;5005605;28;20027;-59
2024/01/11 10:50:43;;;;;;;3.42;2.83;;;19.00;25.20;;;;;;4997872;28;20051;-59
2024/01/11 10:53:42;;;;;;;4.38;3.03;;;19.10;25.50;;;;;;5005928;28;20030;-62
2024/01/11 10:56:09;;;;;;;3.03;2.53;;;19.00;25.80;;;;;;4996948;28;20109;-58
2024/01/11 10:58:35;;;;;;;3.15;2.50;;;19.10;26.10;;;;;;5006224;28;20022;-60
2024/01/11 11:01:02;;;;;;;3.75;2.60;;;19.00;26.30;;;;;;4996309;28;20351;-59
2024/01/11 11:03:29;;;;;;;3.15;2.40;;;19.00;26.50;;;;;;4997758;28;20026;-58
2024/01/11 11:05:55;;;;;;;3.55;2.50;;;19.00;26.50;;;;;;4998861;28;20038;-59
2024/01/11 11:08:26;;;;;;;3.72;2.53;;;19.00;26.60;;;;;;4995980;28;20041;-59
2024/01/11 11:11:03;;;;;;;2.72;2.30;;;19.00;26.60;;;;;;4995647;28;20137;-59
2024/01/11 11:13:29;;;;;;;2.88;2.00;;;19.00;26.60;;;;;;4997303;28;20115;-59
2024/01/11 11:15:57;;;;;;;3.15;2.33;;;19.00;26.60;;;;;;5006192;28;20033;-57
2024/01/11 11:18:24;;;;;;;3.00;2.30;;;19.00;26.60;;;;;;4996198;28;20053;-58
2024/01/11 11:20:51;;;;;;;3.25;2.22;;;18.90;26.60;;;;;;4995810;28;20038;-59
2024/01/11 11:23:18;;;;;;;3.20;2.35;;;18.90;26.60;;;;;;4996057;28;20418;-60
2024/01/11 11:25:48;;;;;;;3.45;2.55;;;18.90;26.60;;;;;;4997306;28;20026;-60
2024/01/11 11:28:16;;;;;;;3.70;2.40;;;18.90;26.60;;;;;;5012559;28;20049;-61
2024/01/11 11:30:48;;;;;;;3.38;2.47;;;18.90;26.70;;;;;;5007865;28;20036;-60
2024/01/11 11:33:18;;;;;;;3.35;2.42;;;18.90;26.70;;;;;;5010112;28;20091;-61
2024/01/11 11:35:46;;;;;;;4.00;2.58;;;18.90;26.80;;;;;;5006355;28;20030;-59
2024/01/11 11:38:20;;;;;;;3.17;2.42;;;18.80;26.80;;;;;;4989053;28;20038;-60
2024/01/11 11:40:52;;;;;;;2.97;2.22;;;18.80;26.80;;;;;;4996233;28;20046;-60
2024/01/11 11:43:19;;;;;;;2.63;1.98;;;18.80;26.90;;;;;;5004742;28;20037;-61
2024/01/11 11:45:49;;;;;;;2.97;1.70;;;18.80;27.00;;;;;;5015291;28;20037;-60
2024/01/11 11:48:34;;;;;;;2.50;2.05;;;18.80;27.00;;;;;;5007042;28;20069;-60
2024/01/11 11:51:10;;;;;;;2.25;1.70;;;18.80;27.10;;;;;;5014679;28;20457;-60
2024/01/11 11:53:38;;;;;;;2.67;1.70;;;18.80;27.10;;;;;;4997961;28;20045;-57
2024/01/11 11:56:06;;;;;;;2.30;1.67;;;18.80;27.10;;;;;;4996842;28;20030;-60
2024/01/11 11:58:34;;;;;;;3.00;2.15;;;18.80;27.20;;;;;;5015459;28;20445;-60
2024/01/11 12:01:00;;;;;;;2.33;1.80;;;18.80;27.20;;;;;;5014821;28;20037;-60
2024/01/11 12:03:37;;;;;;;2.72;2.15;;;18.70;27.20;;;;;;5012579;28;20147;-59
2024/01/11 12:06:08;;;;;;;3.15;2.20;;;18.70;27.20;;;;;;5010739;28;20044;-60
2024/01/11 12:08:35;;;;;;;2.65;1.90;;;18.80;27.30;;;;;;5009689;28;20044;-60
2024/01/11 12:11:01;;;;;;;3.15;2.05;;;18.70;27.30;;;;;;4997935;28;20030;-60
2024/01/11 12:13:27;;;;;;;2.55;1.83;;;18.70;27.30;;;;;;5009396;28;20050;-60
2024/01/11 12:15:53;;;;;;;3.40;2.30;;;18.70;27.30;;;;;;5009906;28;20403;-60
2024/01/11 12:18:19;;;;;;;2.63;2.03;;;18.70;27.30;;;;;;5002530;28;20153;-60
2024/01/11 12:20:45;;;;;;;2.92;1.90;;;18.70;27.40;;;;;;4995212;28;20038;-60
2024/01/11 12:23:13;;;;;;;3.17;2.20;;;18.70;27.40;;;;;;4997761;28;20361;-56
2024/01/11 12:25:40;;;;;;;2.70;2.03;;;18.70;27.40;;;;;;4993463;28;20465;-58
2024/01/11 12:28:06;;;;;;;2.50;2.05;;;18.70;27.40;;;;;;4998560;28;20398;-59
2024/01/11 12:30:33;;;;;;;3.05;2.22;;;18.70;27.40;;;;;;5007695;28;20061;-60
2024/01/11 12:33:03;;;;;;;2.47;2.05;;;18.70;27.50;;;;;;4997074;28;20050;-60
2024/01/11 12:35:31;;;;;;;3.88;2.30;;;18.60;27.50;;;;;;4990708;28;20074;-61
2024/01/11 12:38:15;;;;;;;3.25;1.88;;;18.60;27.50;;;;;;5007410;28;20026;-60
2024/01/11 12:40:41;;;;;;;2.55;1.90;;;18.60;27.50;;;;;;4999980;28;20038;-60
2024/01/11 12:43:07;;;;;;;2.75;1.98;;;18.60;27.60;;;;;;4997162;28;20050;-60
2024/01/11 12:45:35;;;;;;;2.90;1.95;;;18.60;27.60;;;;;;4997066;28;20350;-61